createdAt,value
2022-11-16T00:00:19.280Z,-2.31
2022-11-16T00:02:48.293Z,-2.28
2022-11-16T00:05:15.544Z,-2.31
2022-11-16T00:07:42.728Z,-2.40
2022-11-16T00:10:11.445Z,-2.52
2022-11-16T00:12:40.058Z,-2.56
2022-11-16T00:15:07.315Z,-2.55
2022-11-16T00:17:34.603Z,-2.60
2022-11-16T00:20:02.006Z,-2.60
2022-11-16T00:22:30.272Z,-2.57
2022-11-16T00:24:57.354Z,-2.63
2022-11-16T00:27:24.898Z,-2.66
2022-11-16T00:29:52.261Z,-2.73
2022-11-16T00:32:19.592Z,-2.76
2022-11-16T00:34:47.221Z,-3.49
2022-11-16T00:37:14.357Z,-2.79
2022-11-16T00:39:41.544Z,-2.76
2022-11-16T00:42:13.066Z,-2.73
2022-11-16T00:44:40.429Z,-2.78
2022-11-16T00:47:07.572Z,-2.80
2022-11-16T00:49:35.098Z,-2.79
2022-11-16T00:52:02.303Z,-2.66
2022-11-16T00:54:29.497Z,-2.66
2022-11-16T00:56:56.919Z,-2.76
2022-11-16T00:59:24.598Z,-2.75
2022-11-16T01:01:54.870Z,-2.77
2022-11-16T01:04:23.186Z,-2.75
2022-11-16T01:06:50.451Z,-2.72
2022-11-16T01:09:17.898Z,-2.71
2022-11-16T01:12:06.585Z,-2.68
2022-11-16T01:14:33.796Z,-2.76
2022-11-16T01:17:01.134Z,-2.85
2022-11-16T01:19:28.407Z,-2.93
2022-11-16T01:21:55.498Z,-2.96
2022-11-16T01:24:22.997Z,-2.96
2022-11-16T01:26:50.375Z,-2.95
2022-11-16T01:29:18.180Z,-2.94
2022-11-16T01:31:52.106Z,-2.93
2022-11-16T01:34:19.369Z,-2.96
2022-11-16T01:36:47.038Z,-3.02
2022-11-16T01:39:14.645Z,-3.06
2022-11-16T01:41:47.420Z,-3.09
2022-11-16T01:44:15.870Z,-3.06
2022-11-16T01:46:53.545Z,-3.03
2022-11-16T01:49:22.703Z,-3.04
2022-11-16T01:51:55.587Z,-3.05
2022-11-16T01:54:24.583Z,-3.08
2022-11-16T01:56:57.184Z,-3.13
2022-11-16T01:59:38.211Z,-3.15
2022-11-16T02:02:07.574Z,-3.18
2022-11-16T02:04:35.412Z,-3.21
2022-11-16T02:07:06.587Z,-3.21
2022-11-16T02:09:57.346Z,-3.22
2022-11-16T02:12:36.435Z,-3.29
2022-11-16T02:15:09.976Z,-3.32
2022-11-16T02:17:52.278Z,-3.28
2022-11-16T02:20:39.962Z,-3.30
2022-11-16T02:23:30.522Z,-3.37
2022-11-16T02:26:16.354Z,-3.42
2022-11-16T02:28:46.942Z,-3.45
2022-11-16T02:31:23.882Z,-3.50
2022-11-16T02:33:53.358Z,-3.52
2022-11-16T02:36:22.370Z,-3.50
2022-11-16T02:38:55.342Z,-3.51
2022-11-16T02:41:24.309Z,-3.49
2022-11-16T02:43:57.351Z,-3.40
2022-11-16T02:46:36.305Z,-3.43
2022-11-16T02:49:09.734Z,-3.51
2022-11-16T02:51:38.578Z,-3.47
2022-11-16T02:54:15.367Z,-3.51
2022-11-16T02:56:52.128Z,-3.56
2022-11-16T02:59:26.387Z,-3.43
2022-11-16T03:02:04.403Z,-3.45
2022-11-16T03:04:38.170Z,-3.39
2022-11-16T03:07:07.719Z,-3.44
2022-11-16T03:09:37.623Z,-3.47
2022-11-16T03:12:08.668Z,-3.42
2022-11-16T03:14:41.326Z,-3.41
2022-11-16T03:17:14.340Z,-3.40
2022-11-16T03:19:44.378Z,-3.40
2022-11-16T03:22:18.143Z,-3.49
2022-11-16T03:24:45.621Z,-3.46
2022-11-16T03:27:13.298Z,-3.40
2022-11-16T03:29:50.249Z,-3.35
2022-11-16T03:32:17.428Z,-3.50
2022-11-16T03:34:49.620Z,-3.58
2022-11-16T03:37:17.846Z,-3.60
2022-11-16T03:39:45.575Z,-3.61
2022-11-16T03:42:14.623Z,-3.64
2022-11-16T03:44:46.063Z,-3.70
2022-11-16T03:47:13.936Z,-3.65
2022-11-16T03:49:45.711Z,-3.65
2022-11-16T03:52:15.742Z,-3.64
2022-11-16T03:54:43.302Z,-3.61
2022-11-16T03:57:15.815Z,-3.65
2022-11-16T03:59:46.381Z,-3.68
2022-11-16T04:02:14.360Z,-3.72
2022-11-16T04:05:00.129Z,-3.63
2022-11-16T04:07:45.765Z,-3.54
2022-11-16T04:10:33.495Z,-3.60
2022-11-16T04:13:19.879Z,-3.62
2022-11-16T04:16:05.867Z,-3.73
2022-11-16T04:18:51.540Z,-3.75
2022-11-16T04:21:41.439Z,-3.73
2022-11-16T04:24:13.038Z,-3.77
2022-11-16T04:27:02.406Z,-3.78
2022-11-16T04:29:30.155Z,-3.78
2022-11-16T04:32:16.498Z,-3.87
2022-11-16T04:35:02.713Z,-3.91
2022-11-16T04:37:49.093Z,-3.97
2022-11-16T04:40:24.886Z,-3.90
2022-11-16T04:42:53.834Z,-3.85
2022-11-16T04:45:40.741Z,-3.83
2022-11-16T04:48:09.696Z,-3.82
2022-11-16T04:50:38.423Z,-3.81
2022-11-16T04:53:07.131Z,-3.83
2022-11-16T04:55:41.549Z,-3.85
2022-11-16T04:58:08.922Z,-3.76
2022-11-16T05:00:36.211Z,-3.78
2022-11-16T05:03:04.910Z,-3.82
2022-11-16T05:05:33.189Z,-3.89
2022-11-16T05:08:00.877Z,-3.90
2022-11-16T05:10:31.503Z,-3.93
2022-11-16T05:12:59.659Z,-3.85
2022-11-16T05:15:28.375Z,-3.71
2022-11-16T05:17:58.351Z,-3.64
2022-11-16T05:20:45.242Z,-3.60
2022-11-16T05:23:33.552Z,-3.54
2022-11-16T05:26:07.070Z,-3.60
2022-11-16T05:28:34.900Z,-3.71
2022-11-16T05:31:03.104Z,-3.78
2022-11-16T05:33:32.093Z,-3.85
2022-11-16T05:35:59.766Z,-3.80
2022-11-16T05:38:27.098Z,-3.80
2022-11-16T05:40:57.884Z,-3.76
2022-11-16T05:43:25.532Z,-3.67
2022-11-16T05:46:01.168Z,-3.61
2022-11-16T05:48:28.818Z,-3.61
2022-11-16T05:51:00.309Z,-3.56
2022-11-16T05:53:31.080Z,-3.46
2022-11-16T05:55:59.153Z,-3.42
2022-11-16T05:58:26.510Z,-3.41
2022-11-16T06:00:54.525Z,-3.43
2022-11-16T06:03:22.650Z,-3.52
2022-11-16T06:05:53.356Z,-3.42
2022-11-16T06:08:21.057Z,-3.46
2022-11-16T06:10:51.879Z,-3.49
2022-11-16T06:13:19.288Z,-3.62
2022-11-16T06:15:54.320Z,-3.70
2022-11-16T06:18:22.620Z,-3.61
2022-11-16T06:20:50.874Z,-3.40
2022-11-16T06:23:20.996Z,-3.31
2022-11-16T06:25:53.093Z,-3.03
2022-11-16T06:28:20.615Z,-2.73
2022-11-16T06:30:48.965Z,-2.66
2022-11-16T06:33:17.037Z,-2.25
2022-11-16T06:35:44.741Z,-1.68
2022-11-16T06:38:19.001Z,-1.33
2022-11-16T06:40:52.538Z,-0.96
2022-11-16T06:43:22.135Z,-0.83
2022-11-16T06:45:50.990Z,-1.30
2022-11-16T06:48:19.003Z,-1.67
2022-11-16T06:50:50.874Z,-2.43
2022-11-16T06:53:29.747Z,-1.91
2022-11-16T06:56:04.458Z,-1.90
2022-11-16T06:58:36.090Z,-1.99
2022-11-16T07:01:08.119Z,-2.30
2022-11-16T07:03:37.718Z,-2.40
2022-11-16T07:06:10.728Z,-2.14
2022-11-16T07:08:40.230Z,-1.55
2022-11-16T07:11:09.648Z,-1.29
2022-11-16T07:13:37.602Z,-1.59
2022-11-16T07:16:10.035Z,-1.79
2022-11-16T07:18:41.664Z,-1.49
2022-11-16T07:21:14.044Z,-1.21
2022-11-16T07:23:42.613Z,-0.91
2022-11-16T07:26:12.876Z,-0.71
2022-11-16T07:28:55.133Z,-0.65
2022-11-16T07:31:23.683Z,-0.57
2022-11-16T07:34:11.514Z,-0.58
2022-11-16T07:36:47.938Z,-0.49
2022-11-16T07:39:15.483Z,-0.39
2022-11-16T07:41:45.656Z,-0.47
2022-11-16T07:44:23.570Z,-0.70
2022-11-16T07:47:05.656Z,-0.99
2022-11-16T07:49:35.145Z,-1.23
2022-11-16T07:52:21.016Z,-1.03
2022-11-16T07:55:06.841Z,-1.01
2022-11-16T07:57:34.787Z,-1.13
2022-11-16T08:00:06.012Z,-1.19
2022-11-16T08:02:47.958Z,-1.17
2022-11-16T08:05:19.129Z,-1.21
2022-11-16T08:07:48.774Z,-1.20
2022-11-16T08:10:17.135Z,-1.12
2022-11-16T08:12:44.630Z,-1.06
2022-11-16T08:15:12.158Z,-0.86
2022-11-16T08:17:39.587Z,-0.73
2022-11-16T08:20:09.752Z,-0.82
2022-11-16T08:22:37.033Z,-0.91
2022-11-16T08:25:04.829Z,-0.86
2022-11-16T08:27:32.622Z,-0.73
2022-11-16T08:30:03.374Z,-0.68
2022-11-16T08:32:31.333Z,-0.97
2022-11-16T08:34:58.778Z,-1.13
2022-11-16T08:37:27.912Z,-1.26
2022-11-16T08:39:55.568Z,-1.24
2022-11-16T08:42:23.560Z,-1.27
2022-11-16T08:44:50.742Z,-1.29
2022-11-16T08:47:20.403Z,-1.23
2022-11-16T08:52:36.204Z,-1.43
2022-11-16T08:55:05.663Z,-1.44
2022-11-16T08:57:33.740Z,-1.37
2022-11-16T09:00:05.995Z,-1.20
2022-11-16T09:02:33.268Z,-1.19
2022-11-16T09:05:00.321Z,-1.26
2022-11-16T09:07:27.884Z,-1.34
2022-11-16T09:09:55.389Z,-1.26
2022-11-16T09:12:30.953Z,-1.22
2022-11-16T09:14:58.255Z,-1.06
2022-11-16T09:17:25.589Z,-0.92
2022-11-16T09:19:52.820Z,-0.62
2022-11-16T09:22:20.333Z,-0.62
2022-11-16T09:24:49.938Z,-0.57
2022-11-16T09:27:17.494Z,-0.49
2022-11-16T09:29:44.826Z,-0.61
2022-11-16T09:32:12.004Z,-0.68
2022-11-16T09:34:39.159Z,-0.73
2022-11-16T09:37:06.552Z,-0.51
2022-11-16T09:39:34.641Z,-0.40
2022-11-16T09:42:25.975Z,-0.42
2022-11-16T09:45:01.479Z,-0.42
2022-11-16T09:47:50.822Z,-0.28
2022-11-16T09:50:27.039Z,-0.15
2022-11-16T09:52:56.765Z,-0.24
2022-11-16T09:55:35.244Z,-0.37
2022-11-16T09:58:06.544Z,-0.59
2022-11-16T10:00:35.839Z,-0.70
2022-11-16T10:03:05.990Z,-0.67
2022-11-16T10:05:38.895Z,-0.58
2022-11-16T10:08:21.815Z,-0.64
2022-11-16T10:10:58.380Z,-0.49
2022-11-16T10:13:35.336Z,-0.52
2022-11-16T10:16:03.198Z,-0.55
2022-11-16T10:18:49.271Z,-0.62
2022-11-16T10:21:30.578Z,-0.64
2022-11-16T10:24:09.932Z,-0.61
2022-11-16T10:26:48.106Z,-0.52
2022-11-16T10:29:18.141Z,-0.45
2022-11-16T10:31:54.080Z,-0.69
2022-11-16T10:34:26.255Z,-0.98
2022-11-16T10:36:56.864Z,-1.25
2022-11-16T10:39:25.245Z,-1.33
2022-11-16T10:41:52.815Z,-1.47
2022-11-16T10:44:33.140Z,-1.66
2022-11-16T10:47:05.406Z,-1.86
2022-11-16T10:49:47.177Z,-1.96
2022-11-16T10:52:14.698Z,-2.10
2022-11-16T10:54:44.431Z,-2.13
2022-11-16T10:57:14.838Z,-2.09
2022-11-16T10:59:43.837Z,-2.07
2022-11-16T11:02:23.232Z,-2.08
2022-11-16T11:05:04.536Z,-2.01
2022-11-16T11:07:33.881Z,-1.89
2022-11-16T11:10:01.325Z,-1.80
2022-11-16T11:12:40.811Z,-1.69
2022-11-16T11:15:26.157Z,-1.61
2022-11-16T11:18:12.785Z,-1.63
2022-11-16T11:20:44.822Z,-1.55
2022-11-16T11:23:20.994Z,-1.69
2022-11-16T11:26:00.754Z,-1.73
2022-11-16T11:28:35.101Z,-1.72
2022-11-16T11:31:02.843Z,-1.70
2022-11-16T11:33:31.289Z,-1.71
2022-11-16T11:36:01.235Z,-1.67
2022-11-16T11:38:28.457Z,-1.72
2022-11-16T11:41:00.102Z,-1.78
2022-11-16T11:43:28.751Z,-1.83
2022-11-16T11:46:02.389Z,-1.84
2022-11-16T11:48:37.624Z,-1.85
2022-11-16T11:51:12.373Z,-1.89
2022-11-16T11:53:44.376Z,-1.91
2022-11-16T11:56:12.374Z,-1.90
2022-11-16T11:58:40.137Z,-1.93
2022-11-16T12:01:26.155Z,-1.96
2022-11-16T12:04:11.736Z,-1.92
2022-11-16T12:06:57.569Z,-1.84
2022-11-16T12:09:24.911Z,-1.90
2022-11-16T12:12:09.220Z,-1.92
2022-11-16T12:14:42.029Z,-1.98
2022-11-16T12:17:14.557Z,-2.03
2022-11-16T12:20:02.384Z,-1.95
2022-11-16T12:22:39.106Z,-2.00
2022-11-16T12:25:06.490Z,-2.06
2022-11-16T12:27:44.912Z,-2.15
2022-11-16T12:30:15.737Z,-2.26
2022-11-16T12:32:46.117Z,-2.30
2022-11-16T12:35:28.801Z,-2.33
2022-11-16T12:38:04.076Z,-2.37
2022-11-16T12:40:31.409Z,-2.34
2022-11-16T12:42:58.585Z,-2.38
2022-11-16T12:45:32.788Z,-2.36
2022-11-16T12:48:11.185Z,-2.40
2022-11-16T12:50:58.126Z,-2.42
2022-11-16T12:53:43.982Z,-2.42
2022-11-16T12:56:22.400Z,-2.43
2022-11-16T12:58:49.535Z,-2.48
2022-11-16T13:01:28.730Z,-2.53
2022-11-16T13:04:00.896Z,-2.60
2022-11-16T13:06:40.243Z,-2.61
2022-11-16T13:09:16.650Z,-2.64
2022-11-16T13:11:54.920Z,-2.65
2022-11-16T13:14:26.203Z,-2.68
2022-11-16T13:16:53.964Z,-2.74
2022-11-16T13:19:21.505Z,-2.81
2022-11-16T13:21:51.730Z,-2.85
2022-11-16T13:24:38.227Z,-2.89
2022-11-16T13:27:14.256Z,-2.95
2022-11-16T13:30:01.771Z,-3.05
2022-11-16T13:32:36.426Z,-3.10
2022-11-16T13:35:07.106Z,-3.12
2022-11-16T13:37:37.534Z,-3.18
2022-11-16T13:40:04.806Z,-3.24
2022-11-16T13:42:33.102Z,-3.28
2022-11-16T13:45:17.469Z,-3.33
2022-11-16T13:47:52.346Z,-3.35
2022-11-16T13:50:21.381Z,-3.35
2022-11-16T13:55:44.311Z,-3.37
2022-11-16T13:58:13.270Z,-3.44
2022-11-16T14:00:40.709Z,-3.47
2022-11-16T14:03:17.223Z,-3.50
2022-11-16T14:05:45.638Z,-3.53
2022-11-16T14:08:25.747Z,-3.56
2022-11-16T14:10:53.035Z,-3.57
2022-11-16T14:13:47.481Z,-3.58
2022-11-16T14:16:21.624Z,-3.60
2022-11-16T14:18:50.098Z,-3.59
2022-11-16T14:21:20.440Z,-3.60
2022-11-16T14:24:06.457Z,-3.61
2022-11-16T14:26:53.003Z,-3.60
2022-11-16T14:29:28.374Z,-3.64
2022-11-16T14:31:59.481Z,-3.66
2022-11-16T14:34:30.707Z,-3.68
2022-11-16T14:36:58.707Z,-3.69
2022-11-16T14:39:37.501Z,-3.69
2022-11-16T14:42:15.343Z,-3.70
2022-11-16T14:44:43.828Z,-3.72
2022-11-16T14:47:27.713Z,-3.77
2022-11-16T14:49:56.088Z,-3.82
2022-11-16T14:52:49.705Z,-3.81
2022-11-16T14:55:21.758Z,-3.80
2022-11-16T14:57:48.992Z,-3.85
2022-11-16T15:00:21.465Z,-3.86
2022-11-16T15:02:52.068Z,-3.87
2022-11-16T15:05:21.459Z,-3.89
2022-11-16T15:07:50.258Z,-3.87
2022-11-16T15:10:19.754Z,-3.84
2022-11-16T15:12:51.741Z,-3.85
2022-11-16T15:15:23.146Z,-3.90
2022-11-16T15:18:06.631Z,-3.90
2022-11-16T15:20:36.631Z,-3.94
2022-11-16T15:23:05.141Z,-3.91
2022-11-16T15:25:34.767Z,-3.95
2022-11-16T15:28:04.099Z,-3.99
2022-11-16T15:30:34.175Z,-4.03
2022-11-16T15:33:02.915Z,-3.96
2022-11-16T15:35:32.210Z,-3.92
2022-11-16T15:38:18.129Z,-3.91
2022-11-16T15:40:48.777Z,-3.92
2022-11-16T15:43:16.029Z,-3.90
2022-11-16T15:45:43.944Z,-3.89
2022-11-16T15:48:16.160Z,-3.87
2022-11-16T15:50:54.737Z,-3.87
2022-11-16T15:53:37.528Z,-3.93
2022-11-16T15:56:17.226Z,-3.95
2022-11-16T15:58:45.088Z,-3.97
2022-11-16T16:01:13.892Z,-3.96
2022-11-16T16:03:48.855Z,-3.90
2022-11-16T16:06:35.925Z,-3.88
2022-11-16T16:09:04.599Z,-3.87
2022-11-16T16:11:31.768Z,-3.86
2022-11-16T16:14:00.493Z,-3.87
2022-11-16T16:16:28.383Z,-3.92
2022-11-16T16:18:56.945Z,-3.95
2022-11-16T16:21:26.227Z,-3.95
2022-11-16T16:23:54.558Z,-3.98
2022-11-16T16:26:22.607Z,-3.94
2022-11-16T16:28:49.780Z,-3.95
2022-11-16T16:31:17.793Z,-3.98
2022-11-16T16:33:45.467Z,-4.03
2022-11-16T16:36:13.855Z,-4.04
2022-11-16T16:38:41.671Z,-4.05
2022-11-16T16:41:18.633Z,-4.04
2022-11-16T16:43:50.734Z,-4.03
2022-11-16T16:46:18.540Z,-4.05
2022-11-16T16:48:46.613Z,-4.05
2022-11-16T16:51:14.844Z,-4.09
2022-11-16T16:53:42.413Z,-4.14
2022-11-16T16:56:15.173Z,-4.15
2022-11-16T16:58:43.666Z,-4.18
2022-11-16T17:01:11.754Z,-4.19
2022-11-16T17:03:39.383Z,-4.20
2022-11-16T17:06:07.321Z,-4.23
2022-11-16T17:08:35.830Z,-4.27
2022-11-16T17:11:03.757Z,-4.23
2022-11-16T17:13:31.932Z,-4.23
2022-11-16T17:15:59.994Z,-4.22
2022-11-16T17:18:27.654Z,-4.16
2022-11-16T17:20:55.363Z,-4.14
2022-11-16T17:23:23.251Z,-4.13
2022-11-16T17:25:51.196Z,-4.11
2022-11-16T17:28:19.034Z,-4.08
2022-11-16T17:30:46.929Z,-4.12
2022-11-16T17:33:14.865Z,-4.11
2022-11-16T17:35:42.771Z,-4.13
2022-11-16T17:38:10.905Z,-4.15
2022-11-16T17:40:38.720Z,-4.16
2022-11-16T17:43:06.410Z,-4.19
2022-11-16T17:45:34.244Z,-4.24
2022-11-16T17:48:01.920Z,-4.24
2022-11-16T17:50:33.056Z,-4.24
2022-11-16T17:53:00.699Z,-4.25
2022-11-16T17:55:29.355Z,-4.27
2022-11-16T17:57:58.898Z,-4.30
2022-11-16T18:00:26.480Z,-4.31
2022-11-16T18:02:54.247Z,-4.34
2022-11-16T18:05:22.035Z,-4.40
2022-11-16T18:07:49.891Z,-4.45
2022-11-16T18:10:19.375Z,-4.50
2022-11-16T18:12:47.385Z,-4.55
2022-11-16T18:15:28.027Z,-4.58
2022-11-16T18:17:57.497Z,-4.63
2022-11-16T18:20:27.770Z,-4.64
2022-11-16T18:22:56.476Z,-4.65
2022-11-16T18:25:25.429Z,-4.62
2022-11-16T18:27:54.134Z,-4.56
2022-11-16T18:30:22.810Z,-4.48
2022-11-16T18:32:50.755Z,-4.43
2022-11-16T18:35:18.844Z,-4.34
2022-11-16T18:37:46.721Z,-4.26
2022-11-16T18:40:14.659Z,-4.20
2022-11-16T18:42:42.360Z,-4.19
2022-11-16T18:45:10.024Z,-4.27
2022-11-16T18:47:38.261Z,-4.18
2022-11-16T18:50:18.077Z,-4.18
2022-11-16T18:52:48.276Z,-4.20
2022-11-16T18:55:15.762Z,-4.19
2022-11-16T18:57:43.136Z,-4.15
2022-11-16T19:00:10.792Z,-4.22
2022-11-16T19:02:38.990Z,-4.26
2022-11-16T19:05:06.484Z,-4.25
2022-11-16T19:07:34.065Z,-4.20
2022-11-16T19:10:01.504Z,-4.16
2022-11-16T19:12:28.762Z,-4.13
2022-11-16T19:14:56.111Z,-4.11
2022-11-16T19:17:25.038Z,-4.09
2022-11-16T19:19:52.789Z,-4.07
2022-11-16T19:22:20.884Z,-4.04
2022-11-16T19:24:48.108Z,-3.97
2022-11-16T19:27:16.851Z,-3.91
2022-11-16T19:29:44.435Z,-3.84
2022-11-16T19:32:11.967Z,-3.80
2022-11-16T19:34:39.294Z,-3.73
2022-11-16T19:37:06.537Z,-3.66
2022-11-16T19:39:33.746Z,-3.59
2022-11-16T19:42:01.141Z,-3.53
2022-11-16T19:44:28.575Z,-3.47
2022-11-16T19:46:57.012Z,-3.43
2022-11-16T19:49:24.490Z,-3.37
2022-11-16T19:51:52.188Z,-3.34
2022-11-16T19:54:19.372Z,-3.32
2022-11-16T19:56:50.558Z,-3.28
2022-11-16T19:59:21.362Z,-3.24
2022-11-16T20:01:48.679Z,-3.23
2022-11-16T20:04:16.085Z,-3.24
2022-11-16T20:06:43.771Z,-3.24
2022-11-16T20:09:12.167Z,-3.23
2022-11-16T20:11:40.344Z,-3.25
2022-11-16T20:14:09.016Z,-3.27
2022-11-16T20:16:39.326Z,-3.31
2022-11-16T20:19:07.907Z,-3.35
2022-11-16T20:21:36.879Z,-3.39
2022-11-16T20:24:07.027Z,-3.43
2022-11-16T20:26:35.348Z,-3.44
2022-11-16T20:29:02.929Z,-3.44
2022-11-16T20:31:31.641Z,-3.43
2022-11-16T20:34:02.884Z,-3.42
2022-11-16T20:36:31.588Z,-3.43
2022-11-16T20:38:59.514Z,-3.43
2022-11-16T20:41:27.858Z,-3.41
2022-11-16T20:43:56.881Z,-3.43
2022-11-16T20:46:27.949Z,-3.42
2022-11-16T20:48:57.155Z,-3.39
2022-11-16T20:51:24.617Z,-3.37
2022-11-16T20:53:52.267Z,-3.35
2022-11-16T20:56:20.057Z,-3.32
2022-11-16T20:58:48.159Z,-3.30
2022-11-16T21:01:28.851Z,-3.29
2022-11-16T21:03:56.601Z,-3.29
2022-11-16T21:06:24.106Z,-3.26
2022-11-16T21:08:51.363Z,-3.23
2022-11-16T21:11:20.615Z,-3.18
2022-11-16T21:14:06.635Z,-3.12
2022-11-16T21:16:34.545Z,-3.03
2022-11-16T21:19:02.504Z,-2.98
2022-11-16T21:21:30.049Z,-2.92
2022-11-16T21:23:57.537Z,-2.89
2022-11-16T21:26:25.859Z,-2.84
2022-11-16T21:28:53.190Z,-2.80
2022-11-16T21:31:22.097Z,-2.75
2022-11-16T21:33:49.530Z,-2.70
2022-11-16T21:36:17.705Z,-2.65
2022-11-16T21:38:45.475Z,-2.61
2022-11-16T21:41:13.488Z,-2.59
2022-11-16T21:43:41.130Z,-2.57
2022-11-16T21:46:10.648Z,-2.54
2022-11-16T21:48:38.171Z,-2.52
2022-11-16T21:51:06.625Z,-2.50
2022-11-16T21:53:34.460Z,-2.46
2022-11-16T21:56:02.058Z,-2.41
2022-11-16T21:58:29.163Z,-2.38
2022-11-16T22:01:01.000Z,-2.33
2022-11-16T22:03:29.484Z,-2.30
2022-11-16T22:06:16.516Z,-2.28
2022-11-16T22:08:43.994Z,-2.28
2022-11-16T22:11:11.711Z,-2.26
2022-11-16T22:13:39.487Z,-2.24
2022-11-16T22:16:11.830Z,-2.24
2022-11-16T22:18:39.305Z,-2.20
2022-11-16T22:21:07.115Z,-2.19
2022-11-16T22:23:35.298Z,-2.16
2022-11-16T22:26:07.189Z,-2.16
2022-11-16T22:28:34.991Z,-2.14
2022-11-16T22:31:03.195Z,-2.18
2022-11-16T22:33:30.344Z,-2.16
2022-11-16T22:35:58.048Z,-2.16
2022-11-16T22:38:25.551Z,-2.14
2022-11-16T22:40:53.549Z,-2.14
2022-11-16T22:43:21.865Z,-2.14
2022-11-16T22:45:49.241Z,-2.12
2022-11-16T22:48:16.737Z,-2.10
2022-11-16T22:50:44.283Z,-2.10
2022-11-16T22:53:11.628Z,-2.10
2022-11-16T22:55:39.123Z,-2.11
2022-11-16T22:58:06.910Z,-2.11
2022-11-16T23:00:40.628Z,-2.10
2022-11-16T23:03:09.468Z,-2.11
2022-11-16T23:05:36.717Z,-2.07
2022-11-16T23:08:03.730Z,-2.06
2022-11-16T23:10:50.855Z,-2.05
2022-11-16T23:13:36.994Z,-2.03
2022-11-16T23:16:05.015Z,-2.03
2022-11-16T23:18:32.316Z,-2.02
2022-11-16T23:21:18.200Z,-2.00
2022-11-16T23:24:03.704Z,-1.98
2022-11-16T23:26:49.620Z,-1.97
2022-11-16T23:29:16.936Z,-1.95
2022-11-16T23:31:44.145Z,-1.94
2022-11-16T23:34:11.469Z,-1.94
2022-11-16T23:36:38.764Z,-2.10
2022-11-16T23:39:05.876Z,-1.93
2022-11-16T23:42:05.196Z,-1.91
2022-11-16T23:44:32.215Z,-1.91
2022-11-16T23:46:59.270Z,-1.93
2022-11-16T23:49:26.887Z,-1.91
2022-11-16T23:51:54.016Z,-1.92
2022-11-16T23:54:21.115Z,-1.94
2022-11-16T23:56:48.553Z,-1.94
2022-11-16T23:59:15.748Z,-1.96
